header
chart

Reported and forecast weather at local airports

Important: not to be used for flight planning purposes.


EGBB METAR fetched   Friday 7th May @ 21:15:24
EGBB 071950Z 19003KT CAVOK 10/M03 Q1014

EGCC METAR fetched   Friday 7th May @ 21:15:18
EGCC 071950Z AUTO 32004KT 9999 NCD 09/M01 Q1014

EGGP METAR fetched   Friday 7th May @ 21:15:20
EGGP 071950Z AUTO VRB01KT 9999 SCT043/// 10/01 Q1014

EGNH METAR fetched   Friday 7th May @ 21:15:21
EGNH 071950Z VRB02KT CAVOK 07/01 Q1014

EGNM METAR fetched   Friday 7th May @ 21:15:23
EGNM 071550Z 25014KT 9999 SCT042TCU 11/00 Q1014

EGOV METAR fetched   Friday 7th May @ 21:15:25
EGOV 071950Z AUTO 09003KT 9999 NCD 08/02 Q1013


EGBB TAF fetched   Friday 7th May @ 21:15:25
TAF EGBB 071657Z 0718/0818 VRB04KT 9999 SCT045 BECMG 0801/0804 12010KT TEMPO 0802/0811 6000 RA BKN007 TEMPO 0804/0809 13015G25KT PROB40 TEMPO 0805/0811 3000 +RA BKN004 BECMG 0809/0812 22018KT TEMPO 0811/0818 6000 -RADZ BKN009 PROB30 TEMPO 0811/0817 4000 RADZ

EGCC TAF fetched   Friday 7th May @ 21:15:19
TAF EGCC 071657Z 0718/0824 28008KT 9999 FEW040 BECMG 0803/0806 10012KT 6000 -RA TEMPO 0805/0817 11015G28KT 4000 RA BKN008 PROB40 TEMPO 0806/0814 1200 +RA BKN004 BECMG 0814/0817 19012KT 9999 NSW BKN020 TEMPO 0817/0824 20015G25KT 7000 RADZ BKN012

EGGP TAF fetched   Friday 7th May @ 21:15:21
TAF EGGP 071657Z 0718/0818 28007KT 9999 FEW040 BECMG 0803/0806 11012KT 6000 -RA TEMPO 0806/0815 12015G25KT 4000 RA BKN008 PROB30 TEMPO 0806/0815 1200 +RA BECMG 0812/0815 19012KT 9999 NSW BKN020 TEMPO 0815/0818 20015G25KT 7000 RA BKN012

EGNM TAF fetched   Friday 7th May @ 21:15:23
TAF TAF EGNM 071723Z 0712/0812 CNL

EGOV TAF fetched   Friday 7th May @ 21:15:26
TAF TAF EGOV 190525Z 1906/1918 04008KT CAVOK PROB30 TEMPO 1906/1912 6000 SHRA TEMPO 1912/1915 4000 +SHRA SCT020 BKN030CB PROB30 TEMPO 1913/1915 VRBG20G30KT 2500 TSGR BKN012

Every effort is made to ensure that this information is free from errors but as it is provided by a third party the accuracy of the reports cannot be guaranteed.